CET,Max TemperatureF,Mean TemperatureF,Min TemperatureF,Max Dew PointF,MeanDew PointF,Min DewpointF,Max Humidity, Mean Humidity, Min Humidity, Max Sea Level PressureIn, Mean Sea Level PressureIn, Min Sea Level PressureIn, Max VisibilityMiles, Mean VisibilityMiles, Min VisibilityMiles, Max Wind SpeedMPH, Mean Wind SpeedMPH, Max Gust SpeedMPH,PrecipitationIn, CloudCover, Events, WindDirDegrees
2012-12-1,53,48,44,43,40,36,87,69,46,29.92,29.78,29.71,19,7,6,25,9,36,0.00,1,,50
2012-12-2,56,46,35,41,38,32,93,66,35,30.21,30.10,29.92,19,7,6,20,7,,0.00,1,,313
2012-12-3,62,53,44,48,44,37,93,70,40,30.27,30.24,30.21,17,7,6,15,8,,0.00,1,,278
2012-12-4,62,50,39,52,44,36,100,70,34,30.21,30.06,29.98,16,7,6,22,6,33,0.00,1,,289
2012-12-5,59,54,50,41,38,29,62,49,23,30.04,29.97,29.92,19,7,6,24,12,40,0.00,2,Rain,305
2012-12-6,61,52,41,46,41,33,93,63,33,30.12,30.08,30.01,19,7,6,21,10,26,0.00,2,,337
2012-12-7,60,47,34,54,44,33,100,84,51,30.10,29.95,29.86,19,7,6,17,4,15,0.00,1,,276
2012-12-8,59,52,44,50,44,39,94,67,36,30.21,30.01,29.86,16,7,6,22,9,32,0.00,2,,338
2012-12-9,61,48,36,48,41,36,100,81,43,30.30,30.26,30.21,19,7,6,9,2,,0.00,2,,269
2012-12-10,63,50,36,50,43,35,100,83,43,30.22,30.11,30.04,19,7,6,13,2,,0.00,1,,342
2012-12-11,59,49,39,48,44,37,100,85,54,30.13,30.11,30.06,19,7,6,9,3,,0.00,4,,42
2012-12-12,51,45,39,48,45,39,100,90,65,30.14,30.08,30.01,16,6,4,8,3,,0.04,6,Rain,54
2012-12-13,63,56,48,55,51,47,100,87,54,30.02,29.96,29.92,16,6,5,15,5,,0.00,3,Rain,226
2012-12-14,62,60,57,59,54,50,94,81,55,29.98,29.94,29.92,16,7,6,23,15,30,0.00,2,,232
2012-12-15,66,62,59,59,58,55,94,89,66,30.09,30.01,29.92,14,6,6,18,11,,0.00,2,,216
2012-12-16,68,60,51,59,53,44,94,79,34,30.18,30.11,30.06,19,7,6,16,8,,0.00,1,,252
2012-12-17,65,57,49,57,47,30,94,61,22,30.15,30.07,29.98,19,7,6,18,8,,0.00,1,,305
2012-12-18,65,56,46,50,44,38,87,63,30,30.21,30.15,30.12,19,8,6,14,7,,0.00,1,,278
2012-12-19,63,53,43,57,49,39,100,87,63,30.19,30.15,30.12,19,7,5,8,2,,0.00,1,,5
2012-12-20,63,56,48,57,53,48,100,88,68,30.12,30.05,30.01,12,6,5,16,5,,0.00,2,,248
2012-12-21,64,55,46,55,50,45,100,82,39,30.10,30.04,29.98,14,7,6,13,3,,0.00,1,,260
2012-12-22,62,53,44,54,48,42,100,80,40,30.28,30.22,30.06,16,7,6,20,6,32,0.00,1,,221
2012-12-23,59,52,44,57,52,42,100,94,82,30.28,30.22,30.18,9,6,0,9,2,,0.00,5,Fog,228
2012-12-24,61,54,48,57,54,48,100,93,76,30.19,30.10,30.04,12,4,0,8,2,,0.00,5,Fog,226
2012-12-25,63,56,48,57,53,46,100,89,50,30.04,29.95,29.86,19,5,0,8,2,,0.00,4,Fog,251
2012-12-26,60,53,46,54,50,43,94,80,60,30.33,30.15,29.98,9,6,5,16,6,29,0.00,3,Rain,22
2012-12-27,61,49,37,54,45,37,100,84,54,30.42,30.36,30.33,19,8,6,15,4,,0.00,1,,243
2012-12-28,63,52,42,54,49,41,100,81,52,30.48,30.42,30.36,19,8,6,9,3,,0.00,2,,100
2012-12-29,61,50,39,55,48,40,100,91,68,30.40,30.28,30.18,17,5,0,13,3,,0.00,2,Fog,234
2012-12-30,61,51,41,50,44,38,100,76,40,30.42,30.34,30.18,16,7,6,10,3,,0.00,1,,343
2012-12-31,59,46,34,52,43,33,100,82,59,30.41,30.30,30.12,16,7,6,15,3,,0.00,1,,220